createdAt,value
2023-01-29T00:00:31.271Z,4.32
2023-01-29T00:03:37.221Z,4.80
2023-01-29T00:06:41.996Z,7.88
2023-01-29T00:09:46.951Z,8.68
2023-01-29T00:12:50.991Z,6.53
2023-01-29T00:16:02.733Z,5.32
2023-01-29T00:19:06.907Z,6.38
2023-01-29T00:22:10.457Z,7.57
2023-01-29T00:25:14.306Z,6.47
2023-01-29T00:28:25.441Z,7.97
2023-01-29T00:31:29.783Z,9.35
2023-01-29T00:34:34.538Z,14.77
2023-01-29T00:37:41.763Z,10.63
2023-01-29T00:41:05.476Z,9.90
2023-01-29T00:44:28.024Z,9.80
2023-01-29T00:47:31.811Z,8.30
2023-01-29T00:50:35.684Z,11.02
2023-01-29T00:53:39.799Z,8.00
2023-01-29T00:56:47.862Z,6.88
2023-01-29T00:59:52.695Z,7.28
2023-01-29T01:03:07.619Z,6.00
2023-01-29T01:06:12.455Z,7.93
2023-01-29T01:09:39.724Z,7.38
2023-01-29T01:12:53.114Z,8.38
2023-01-29T01:15:57.362Z,7.40
2023-01-29T01:19:01.889Z,8.15
2023-01-29T01:22:06.255Z,10.45
2023-01-29T01:25:10.010Z,7.57
2023-01-29T01:28:14.941Z,6.75
2023-01-29T01:31:23.877Z,7.70
2023-01-29T01:34:27.959Z,8.20
2023-01-29T01:37:39.250Z,8.55
2023-01-29T01:40:52.206Z,8.45
2023-01-29T01:44:01.471Z,9.35
2023-01-29T01:47:07.799Z,9.27
2023-01-29T01:50:19.943Z,12.68
2023-01-29T01:53:59.528Z,16.23
2023-01-29T01:57:53.028Z,15.38
2023-01-29T02:01:06.498Z,20.02
2023-01-29T02:08:11.663Z,28.83
2023-01-29T02:11:16.037Z,41.05
2023-01-29T02:18:09.985Z,43.88
2023-01-29T02:22:12.722Z,43.35
2023-01-29T02:25:56.873Z,40.95
2023-01-29T02:29:24.431Z,28.83
2023-01-29T02:33:02.018Z,18.85
2023-01-29T02:36:20.091Z,21.85
2023-01-29T02:39:43.023Z,25.60
2023-01-29T02:43:18.999Z,25.60
2023-01-29T02:46:41.377Z,23.15
2023-01-29T02:54:31.522Z,13.20
2023-01-29T03:01:07.049Z,10.68
2023-01-29T03:38:06.569Z,7.13
2023-01-29T03:49:42.996Z,3.85
2023-01-29T03:57:22.405Z,4.25
2023-01-29T04:01:11.418Z,4.45
2023-01-29T04:04:36.662Z,8.13
2023-01-29T04:07:50.629Z,5.47
2023-01-29T04:10:58.359Z,5.43
2023-01-29T04:14:16.402Z,5.82
2023-01-29T04:17:37.669Z,5.97
2023-01-29T04:20:55.015Z,6.35
2023-01-29T04:32:17.243Z,3.05
2023-01-29T04:35:53.471Z,2.85
2023-01-29T04:39:47.518Z,3.20
2023-01-29T04:47:38.534Z,1.63
2023-01-29T04:55:36.779Z,3.70
2023-01-29T05:02:17.413Z,1.85
2023-01-29T05:05:25.322Z,2.28
2023-01-29T05:08:34.698Z,3.42
2023-01-29T05:15:04.557Z,2.33
2023-01-29T05:18:10.818Z,2.35
2023-01-29T05:21:16.148Z,2.03
2023-01-29T05:28:10.736Z,3.40
2023-01-29T05:31:15.336Z,3.00
2023-01-29T05:34:19.664Z,4.50
2023-01-29T05:37:28.050Z,3.28
2023-01-29T05:50:28.886Z,2.90
2023-01-29T05:53:41.925Z,2.05
2023-01-29T05:56:53.116Z,1.45
2023-01-29T05:59:59.380Z,2.25
2023-01-29T06:03:07.444Z,3.92
2023-01-29T06:09:39.458Z,1.15
2023-01-29T06:12:54.701Z,1.33
2023-01-29T06:19:27.442Z,1.35
2023-01-29T06:39:04.257Z,1.13
2023-01-29T06:42:21.073Z,0.73
2023-01-29T06:49:01.363Z,2.50
2023-01-29T06:55:37.590Z,2.60
2023-01-29T06:58:51.988Z,2.45
2023-01-29T07:05:19.422Z,2.25
2023-01-29T07:22:16.041Z,1.52
2023-01-29T07:25:35.781Z,1.88
2023-01-29T07:28:47.694Z,1.85
2023-01-29T07:31:52.340Z,1.65
2023-01-29T07:34:59.229Z,2.33
2023-01-29T07:41:22.692Z,3.08
2023-01-29T07:47:51.062Z,3.42
2023-01-29T07:51:06.714Z,4.75
2023-01-29T07:54:11.885Z,3.05
2023-01-29T07:57:21.935Z,3.58
2023-01-29T08:00:31.773Z,3.90
2023-01-29T08:06:56.398Z,3.20
2023-01-29T08:10:02.790Z,3.83
2023-01-29T08:13:12.207Z,2.53
2023-01-29T08:26:37.289Z,5.90
2023-01-29T08:29:42.878Z,7.93
2023-01-29T08:39:34.566Z,14.32
2023-01-29T08:42:52.169Z,17.80
2023-01-29T08:46:02.406Z,20.77
2023-01-29T08:49:07.427Z,16.05
2023-01-29T08:52:28.629Z,14.73
2023-01-29T08:55:36.361Z,15.00
2023-01-29T09:09:17.643Z,18.00
2023-01-29T09:26:26.686Z,11.38
2023-01-29T09:29:35.853Z,10.23
2023-01-29T09:32:54.669Z,7.63
2023-01-29T09:36:04.450Z,9.60
2023-01-29T09:39:09.829Z,10.25
2023-01-29T09:42:26.772Z,10.30
2023-01-29T09:45:33.439Z,12.85
2023-01-29T09:48:38.360Z,9.02
2023-01-29T09:51:56.551Z,9.05
2023-01-29T09:55:07.217Z,10.15
2023-01-29T09:58:27.970Z,11.57
2023-01-29T10:02:03.947Z,12.38
2023-01-29T10:05:42.746Z,10.70
2023-01-29T10:09:05.356Z,14.10
2023-01-29T10:12:34.021Z,11.32
2023-01-29T10:16:07.616Z,12.20
2023-01-29T10:19:40.066Z,12.20
2023-01-29T10:30:06.247Z,15.98
2023-01-29T10:40:22.490Z,19.38
2023-01-29T10:47:33.727Z,21.00
2023-01-29T10:51:02.918Z,22.13
2023-01-29T10:54:33.894Z,19.58
2023-01-29T11:04:33.115Z,24.83
2023-01-29T11:07:38.118Z,22.45
2023-01-29T11:14:48.855Z,17.05
2023-01-29T11:18:22.785Z,24.00
2023-01-29T11:21:28.909Z,19.98
2023-01-29T11:27:46.935Z,18.15
2023-01-29T11:30:54.916Z,19.17
2023-01-29T11:34:29.543Z,15.75
2023-01-29T11:37:39.221Z,14.35
2023-01-29T11:40:43.783Z,16.38
2023-01-29T11:43:50.534Z,17.58
2023-01-29T11:50:25.396Z,14.30
2023-01-29T11:53:42.828Z,10.90
2023-01-29T12:00:30.211Z,11.52
2023-01-29T12:10:40.023Z,7.82
2023-01-29T12:13:57.435Z,5.72
2023-01-29T12:17:11.021Z,10.90
2023-01-29T12:20:27.344Z,12.07
2023-01-29T12:31:19.468Z,21.15
2023-01-29T12:34:41.721Z,22.83
2023-01-29T12:38:06.013Z,21.35
2023-01-29T12:41:35.210Z,26.48
2023-01-29T12:44:55.772Z,36.35
2023-01-29T12:58:43.128Z,32.63
2023-01-29T13:01:57.947Z,39.75
2023-01-29T13:05:37.653Z,47.17
2023-01-29T13:08:54.808Z,35.35
2023-01-29T13:12:19.660Z,44.03
2023-01-29T13:15:40.316Z,43.03
2023-01-29T13:19:03.902Z,42.38
2023-01-29T13:22:21.844Z,43.17
2023-01-29T13:28:47.429Z,46.78
2023-01-29T13:32:15.051Z,39.35
2023-01-29T13:38:45.754Z,30.95
2023-01-29T13:41:52.058Z,29.10
2023-01-29T13:45:03.054Z,23.98
2023-01-29T13:48:39.174Z,20.40
2023-01-29T13:51:45.100Z,20.17
2023-01-29T13:55:29.065Z,18.90
2023-01-29T13:58:37.201Z,14.90
2023-01-29T14:01:52.496Z,17.15
2023-01-29T14:05:50.441Z,14.73
2023-01-29T14:09:03.057Z,18.75
2023-01-29T14:12:33.826Z,22.63
2023-01-29T14:15:45.121Z,22.52
2023-01-29T14:19:05.388Z,28.45
2023-01-29T14:22:24.537Z,40.05
2023-01-29T14:25:42.779Z,39.65
2023-01-29T14:29:16.511Z,38.60
2023-01-29T14:32:56.761Z,34.30
2023-01-29T14:36:07.685Z,29.23
2023-01-29T14:46:40.939Z,28.83
2023-01-29T14:54:37.265Z,42.95
2023-01-29T14:57:42.174Z,45.47
2023-01-29T15:01:01.422Z,49.22
2023-01-29T15:07:51.300Z,50.95
2023-01-29T15:18:14.836Z,31.92
2023-01-29T15:21:20.102Z,39.33
2023-01-29T15:24:32.727Z,37.58
2023-01-29T15:27:37.627Z,38.15
2023-01-29T15:30:44.852Z,42.92
2023-01-29T15:33:55.844Z,38.67
2023-01-29T15:37:06.924Z,37.63
2023-01-29T15:40:18.923Z,37.60
2023-01-29T15:43:34.667Z,33.65
2023-01-29T15:46:41.643Z,30.98
2023-01-29T15:49:48.547Z,37.35
2023-01-29T15:52:59.543Z,37.15
2023-01-29T16:02:42.891Z,39.28
2023-01-29T16:05:47.447Z,33.67
2023-01-29T16:09:00.315Z,32.10
2023-01-29T16:12:05.035Z,31.25
2023-01-29T16:15:21.983Z,37.33
2023-01-29T16:18:36.494Z,43.22
2023-01-29T16:21:48.515Z,56.88
2023-01-29T16:24:55.568Z,43.33
2023-01-29T16:28:00.979Z,45.88
2023-01-29T16:31:05.830Z,37.45
2023-01-29T16:34:17.787Z,43.13
2023-01-29T16:37:33.547Z,52.38
2023-01-29T16:43:58.943Z,51.60
2023-01-29T16:47:26.908Z,49.10
2023-01-29T16:50:54.008Z,40.10
2023-01-29T16:54:19.958Z,46.45
2023-01-29T16:57:34.032Z,75.07
2023-01-29T17:00:38.411Z,65.25
2023-01-29T17:03:50.459Z,49.80
2023-01-29T17:07:00.114Z,35.83
2023-01-29T17:10:06.725Z,37.55
2023-01-29T17:13:20.762Z,28.25
2023-01-29T17:16:36.668Z,32.55
2023-01-29T17:19:42.114Z,43.33
2023-01-29T17:22:48.713Z,38.33
2023-01-29T17:26:00.482Z,44.85
2023-01-29T17:29:08.696Z,27.77
2023-01-29T17:32:16.916Z,24.77
2023-01-29T17:35:23.413Z,25.65
2023-01-29T17:38:27.907Z,25.13
2023-01-29T17:41:33.696Z,23.55
2023-01-29T17:47:56.662Z,28.70
2023-01-29T17:51:08.672Z,22.02
2023-01-29T18:00:46.687Z,24.70
2023-01-29T18:03:51.763Z,17.08
2023-01-29T18:07:02.015Z,28.10
2023-01-29T18:10:09.035Z,42.33
2023-01-29T18:13:21.593Z,23.73
2023-01-29T18:19:46.508Z,24.52
2023-01-29T18:22:54.804Z,33.13
2023-01-29T18:25:59.210Z,41.28
2023-01-29T18:35:38.748Z,38.35
2023-01-29T18:38:46.566Z,27.83
2023-01-29T18:41:52.960Z,33.92
2023-01-29T18:44:56.693Z,34.38
2023-01-29T18:48:01.996Z,31.40
2023-01-29T18:51:06.726Z,27.50
2023-01-29T18:54:15.384Z,27.25
2023-01-29T18:58:25.067Z,23.08
2023-01-29T19:00:44.049Z,33.13
2023-01-29T19:10:24.158Z,22.73
2023-01-29T19:13:28.311Z,36.65
2023-01-29T19:16:34.269Z,47.13
2023-01-29T19:19:38.365Z,46.95
2023-01-29T19:22:45.948Z,45.35
2023-01-29T19:25:51.701Z,12.63
2023-01-29T19:29:02.389Z,10.48
2023-01-29T19:32:06.447Z,7.63
2023-01-29T19:35:16.177Z,10.40
2023-01-29T19:38:22.219Z,10.90
2023-01-29T19:41:28.347Z,11.63
2023-01-29T19:44:32.544Z,8.93
2023-01-29T19:47:44.323Z,8.20
2023-01-29T19:54:14.953Z,9.52
2023-01-29T19:57:19.092Z,11.73
2023-01-29T20:00:23.531Z,10.60
2023-01-29T20:03:28.292Z,13.82
2023-01-29T20:06:32.479Z,13.15
2023-01-29T20:09:36.201Z,16.13
2023-01-29T20:12:41.875Z,18.27
2023-01-29T20:15:55.091Z,23.27
2023-01-29T20:22:20.570Z,21.60
2023-01-29T20:25:31.711Z,17.55
2023-01-29T20:28:37.084Z,18.63
2023-01-29T20:31:40.469Z,19.13
2023-01-29T20:34:48.761Z,23.65
2023-01-29T20:37:53.908Z,27.80
2023-01-29T20:41:16.470Z,22.30
2023-01-29T20:44:27.666Z,22.70
2023-01-29T20:47:32.403Z,25.42
2023-01-29T20:50:39.830Z,41.78
2023-01-29T20:53:47.647Z,40.78
2023-01-29T21:00:12.108Z,25.50
2023-01-29T21:03:18.868Z,29.83
2023-01-29T21:09:54.227Z,38.83
2023-01-29T21:13:01.899Z,36.53
2023-01-29T21:16:06.161Z,56.55
2023-01-29T21:19:11.533Z,49.83
2023-01-29T21:22:17.911Z,44.10
2023-01-29T21:25:22.441Z,52.40
2023-01-29T21:28:26.540Z,33.60
2023-01-29T21:31:34.877Z,11.13
2023-01-29T21:34:39.123Z,21.65
2023-01-29T21:44:17.387Z,17.20
2023-01-29T21:47:23.645Z,18.15
2023-01-29T21:53:44.724Z,12.77
2023-01-29T21:56:51.467Z,17.33
2023-01-29T21:59:58.902Z,23.90
2023-01-29T22:03:02.904Z,28.70
2023-01-29T22:06:11.275Z,23.60
2023-01-29T22:09:18.167Z,30.52
2023-01-29T22:15:39.328Z,30.90
2023-01-29T22:18:44.640Z,37.05
2023-01-29T22:21:53.063Z,29.98
2023-01-29T22:25:00.903Z,26.92
2023-01-29T22:28:09.055Z,34.42
2023-01-29T22:34:35.435Z,29.38
2023-01-29T22:51:18.857Z,37.67
2023-01-29T23:01:03.124Z,30.15
2023-01-29T23:30:38.972Z,30.73
2023-01-29T23:40:21.530Z,14.10
2023-01-29T23:43:30.246Z,21.10
2023-01-29T23:53:11.142Z,19.55
2023-01-29T23:59:42.904Z,13.18
